Parker City, Indiana
Current Conditions -  °F | °C
As of 1:40 PM on Monday 22 Dec 2014 (Local Time) from KMIE Reporting Station
Overcast Overcast  
Wind Chill: 33°   Ceiling: 1400
Heat Index: 40°   Visibility: 8mi
Dew Point: 33°   Wind: 10mph
Humidity: 77%   Direction: 130°SE
Pressure: 29.85"   Gusts: NA
Location:  40.19°N, 85.2°W
Report Text: KMIE 221840Z 13009KT 8SM OVC014 04/01 A2985 RMK AO2 T00440006
Loading
Personal Weather Stations






























Interactive Weather Map New forecast layout! Learn more

10-Day Weather Forecast

Advertisements
Track Severe Weather on mobile